Terminal Aerodrome Forecast
Issued by NWS

Home | Current Version | Previous Version | Text Only | Print | Product List | Glossary On
Versions: 1 2 3 4 5 6 7 8 9 10 11 12 13 14 15 16 17 18 19 20 21 22 23 24
376
FTUS43 KBIS 201126
TAFJMS
TAF
KJMS 201126Z 2012/2112 26011KT P6SM SKC
     FM201900 23016G24KT P6SM SKC
     FM210100 18008KT P6SM FEW110 FEW250
     FM210600 16011KT P6SM FEW140 FEW200 WS020/20045KT=

USA.gov is the U.S. government's official web portal to all federal, state and local government web resources and services.